Time;durP1;ratioP1;P1;durP2;ratioP2;P2;SDS_P1;SDS_P2;PMS_P1;PMS_P2;Temp;Humidity;BMP_temperature;BMP_pressure;BME280_temperature;BME280_humidity;BME280_pressure;Samples;Min_cycle;Max_cycle;Signal;HPM_P1;HPM_P2
2022/01/12 00:01:31;;;;;;;;;56.50;46.50;3.90;72.00;;;;;;5055867;28;8771;-65
2022/01/12 00:03:57;;;;;;;;;63.00;49.50;3.70;72.40;;;;;;5055831;28;8775;-66
2022/01/12 00:06:24;;;;;;;;;61.50;49.25;4.10;71.20;;;;;;5055699;28;8763;-65
2022/01/12 00:08:51;;;;;;;;;55.50;47.25;3.90;71.00;;;;;;5056001;28;8787;-66
2022/01/12 00:11:19;;;;;;;;;52.00;45.75;4.00;70.40;;;;;;5055880;28;8810;-65
2022/01/12 00:13:45;;;;;;;;;52.50;45.00;3.90;71.80;;;;;;5054569;28;9529;-70
2022/01/12 00:16:11;;;;;;;;;52.25;47.75;3.70;72.00;;;;;;5035497;28;8785;-66
2022/01/12 00:18:37;;;;;;;;;49.25;44.50;4.00;70.80;;;;;;5035534;28;8793;-65
2022/01/12 00:21:04;;;;;;;;;54.25;46.25;3.80;71.10;;;;;;5035422;28;8813;-64
2022/01/12 00:23:30;;;;;;;;;61.50;49.00;4.00;70.90;;;;;;5035433;28;8777;-65
2022/01/12 00:34:04;;;;;;;;;52.75;46.00;4.40;67.40;;;;;;5035191;28;8805;-70
2022/01/12 00:36:31;;;;;;;;;61.25;49.25;4.30;68.00;;;;;;5035469;28;8773;-64
2022/01/12 00:38:57;;;;;;;;;54.25;45.50;4.40;67.80;;;;;;5035498;28;8904;-64
2022/01/12 00:41:23;;;;;;;;;65.75;49.50;4.60;66.80;;;;;;5035350;28;8765;-65
2022/01/12 00:43:56;;;;;;;;;58.50;46.00;4.20;68.60;;;;;;5035039;28;8765;-65
2022/01/12 00:46:23;;;;;;;;;44.50;41.75;4.00;68.30;;;;;;5035314;28;8876;-65
2022/01/12 00:48:51;;;;;;;;;50.25;44.25;3.60;70.10;;;;;;5034920;28;8758;-65
2022/01/12 00:51:17;;;;;;;;;49.75;41.50;3.60;70.90;;;;;;5034952;28;8762;-64
2022/01/12 00:53:42;;;;;;;;;56.75;49.00;4.00;69.60;;;;;;5034783;28;9003;-66
2022/01/12 00:56:08;;;;;;;;;65.25;54.25;3.80;69.20;;;;;;5035141;28;8749;-64
2022/01/12 00:58:35;;;;;;;;;64.00;52.00;3.80;69.30;;;;;;5035012;28;8758;-65
2022/01/12 01:01:02;;;;;;;;;56.75;47.75;4.10;68.40;;;;;;5034795;28;8820;-64
2022/01/12 01:03:29;;;;;;;;;53.25;45.50;4.10;68.20;;;;;;5034766;28;9481;-64
2022/01/12 01:05:55;;;;;;;;;56.50;47.25;3.80;69.10;;;;;;5034688;28;8770;-66
2022/01/12 01:08:22;;;;;;;;;57.00;49.25;3.70;69.10;;;;;;5034551;28;8941;-64
2022/01/12 01:10:51;;;;;;;;;59.00;48.25;3.30;71.30;;;;;;5034568;28;8777;-64
2022/01/12 01:13:25;;;;;;;;;57.00;46.50;3.40;71.70;;;;;;5034737;28;9602;-64
2022/01/12 01:26:37;;;;;;;;;62.50;49.25;3.60;70.30;;;;;;5034507;28;8762;-66
2022/01/12 01:29:04;;;;;;;;;61.75;49.50;3.40;71.20;;;;;;5034125;28;8805;-64
2022/01/12 01:31:32;;;;;;;;;55.00;49.25;3.60;70.80;;;;;;5034391;28;8796;-64
2022/01/12 01:34:06;;;;;;;;;53.00;44.75;3.40;71.20;;;;;;5034209;28;8878;-64
2022/01/12 01:36:37;;;;;;;;;48.00;44.50;3.40;71.30;;;;;;5034436;28;8774;-64
2022/01/12 01:39:05;;;;;;;;;40.25;38.50;3.40;70.40;;;;;;5034064;28;9480;-64
2022/01/12 01:41:31;;;;;;;;;47.50;41.25;3.20;70.80;;;;;;5034540;28;9586;-66
2022/01/12 01:55:08;;;;;;;;;38.25;31.25;2.40;73.70;;;;;;5034178;28;8793;-64
2022/01/12 01:57:34;;;;;;;;;41.75;38.00;2.50;73.50;;;;;;5034411;28;8804;-65
2022/01/12 02:00:01;;;;;;;;;46.25;40.25;2.50;73.10;;;;;;5034077;28;8785;-65
2022/01/12 02:02:27;;;;;;;;;35.00;33.50;2.70;72.40;;;;;;5034040;28;8761;-64
2022/01/12 02:04:53;;;;;;;;;41.50;36.25;2.90;70.70;;;;;;5034004;28;8858;-64
2022/01/12 02:07:19;;;;;;;;;43.75;41.00;2.90;70.60;;;;;;5034234;28;8911;-64
2022/01/12 02:09:44;;;;;;;;;35.50;34.00;3.10;69.50;;;;;;5034057;28;9265;-65
2022/01/12 02:12:12;;;;;;;;;54.50;43.25;3.20;68.90;;;;;;5034035;28;8801;-65
2022/01/12 02:14:39;;;;;;;;;44.75;40.75;2.90;69.60;;;;;;5033904;28;8816;-64
2022/01/12 02:17:13;;;;;;;;;50.75;44.50;3.20;68.90;;;;;;5034176;28;8792;-64
2022/01/12 02:36:30;;;;;;;;;54.75;45.25;3.30;68.50;;;;;;5033847;28;8762;-64
2022/01/12 02:41:42;;;;;;;;;50.25;43.25;3.20;66.70;;;;;;5033788;28;8770;-63
2022/01/12 02:55:06;;;;;;;;;40.75;38.50;2.60;67.70;;;;;;5037440;28;8777;-64
2022/01/12 02:57:31;;;;;;;;;45.00;42.25;2.70;67.40;;;;;;5037355;28;8784;-64
2022/01/12 03:02:31;;;;;;;;;42.75;40.75;3.40;65.60;;;;;;5036975;28;8762;-66
2022/01/12 03:07:43;;;;;;;;;38.25;34.75;3.50;64.80;;;;;;5037301;28;8955;-66
2022/01/12 03:10:11;;;;;;;;;38.25;36.00;3.70;63.50;;;;;;5036874;28;8773;-67
2022/01/12 03:12:43;;;;;;;;;45.50;39.00;3.40;64.50;;;;;;5036815;28;8872;-65
2022/01/12 03:15:09;;;;;;;;;35.75;31.50;3.50;63.40;;;;;;5036749;28;8813;-64
2022/01/12 03:17:35;;;;;;;;;37.50;30.25;3.30;64.00;;;;;;5036692;28;8778;-65
2022/01/12 03:20:03;;;;;;;;;38.25;33.50;3.40;63.80;;;;;;5036717;28;8804;-64
2022/01/12 03:22:29;;;;;;;;;33.50;31.00;3.40;62.80;;;;;;5036589;28;8896;-65
2022/01/12 03:24:55;;;;;;;;;29.50;27.25;3.50;62.50;;;;;;5036684;28;8888;-65
2022/01/12 03:27:22;;;;;;;;;31.25;26.75;3.40;62.80;;;;;;5036640;28;8847;-65
2022/01/12 03:29:51;;;;;;;;;22.00;22.00;3.70;61.60;;;;;;5036774;28;8804;-65
2022/01/12 03:32:26;;;;;;;;;26.75;25.50;3.70;61.60;;;;;;5036468;28;8774;-66
2022/01/12 03:34:57;;;;;;;;;26.00;24.00;3.10;62.90;;;;;;5036363;28;8840;-64
2022/01/12 03:37:41;;;;;;;;;23.00;21.25;3.00;63.30;;;;;;5036432;28;8812;-65
2022/01/12 03:40:09;;;;;;;;;27.00;22.50;2.80;63.80;;;;;;5036458;28;8778;-66
2022/01/12 03:42:35;;;;;;;;;31.00;29.25;2.20;64.70;;;;;;5036550;28;8796;-66
2022/01/12 03:45:01;;;;;;;;;30.50;29.75;2.30;64.80;;;;;;5036249;28;8774;-65
2022/01/12 03:47:27;;;;;;;;;29.75;26.75;2.40;64.40;;;;;;5036183;28;8750;-65
2022/01/12 03:49:53;;;;;;;;;22.75;21.25;2.60;63.40;;;;;;5036147;28;8769;-65
2022/01/12 03:52:19;;;;;;;;;28.00;27.25;2.70;63.40;;;;;;5036081;28;8785;-66
2022/01/12 03:54:44;;;;;;;;;31.75;28.75;2.80;62.70;;;;;;5036056;28;8831;-65
2022/01/12 03:57:10;;;;;;;;;37.50;30.00;2.80;62.10;;;;;;5036051;28;8778;-66
2022/01/12 03:59:36;;;;;;;;;30.50;27.00;2.60;63.10;;;;;;5035752;28;8858;-66
2022/01/12 04:02:02;;;;;;;;;30.25;25.50;2.50;62.40;;;;;;5035776;28;8790;-66
2022/01/12 04:04:36;;;;;;;;;31.00;26.50;2.40;62.60;;;;;;5036081;28;8777;-66
2022/01/12 04:09:47;;;;;;;;;29.25;26.00;2.70;62.40;;;;;;5035778;28;8757;-64
2022/01/12 04:12:13;;;;;;;;;33.00;33.00;2.80;60.50;;;;;;5035639;28;8788;-65
2022/01/12 04:14:39;;;;;;;;;32.25;28.00;2.80;60.60;;;;;;5035588;28;8805;-64
2022/01/12 04:17:05;;;;;;;;;36.50;30.75;2.20;62.80;;;;;;5035942;28;8772;-65
2022/01/12 04:19:31;;;;;;;;;33.50;30.00;2.40;63.10;;;;;;5035568;28;8797;-64
2022/01/12 04:22:06;;;;;;;;;33.25;33.00;2.50;62.10;;;;;;5035793;28;8766;-64
2022/01/12 04:24:33;;;;;;;;;30.75;28.25;2.70;61.50;;;;;;5035528;28;8777;-65
2022/01/12 04:26:59;;;;;;;;;31.25;29.75;2.90;61.10;;;;;;5035702;28;8773;-65
2022/01/12 04:29:25;;;;;;;;;34.00;28.00;2.80;60.60;;;;;;5034141;28;8842;-64
2022/01/12 04:31:51;;;;;;;;;25.75;24.75;2.90;60.80;;;;;;5035283;28;8793;-64
2022/01/12 04:34:16;;;;;;;;;20.75;20.00;3.10;60.20;;;;;;5035184;28;8916;-64
2022/01/12 04:36:42;;;;;;;;;29.25;25.75;2.70;60.50;;;;;;5035262;28;8758;-64
2022/01/12 04:39:08;;;;;;;;;27.50;26.00;2.40;61.80;;;;;;5035386;28;8813;-64
2022/01/12 04:41:36;;;;;;;;;29.50;28.00;2.50;61.30;;;;;;5035204;28;8773;-64
2022/01/12 04:44:02;;;;;;;;;30.75;25.75;2.60;60.80;;;;;;5035118;28;8793;-64
2022/01/12 04:46:39;;;;;;;;;29.75;27.75;2.60;60.50;;;;;;5035326;28;8758;-65
2022/01/12 04:49:23;;;;;;;;;25.00;25.00;2.90;60.00;;;;;;5035020;28;8773;-65
2022/01/12 04:51:51;;;;;;;;;22.50;21.00;2.90;59.30;;;;;;5035320;28;9535;-64
2022/01/12 04:54:17;;;;;;;;;32.75;28.75;2.50;60.40;;;;;;5034939;28;8821;-64
2022/01/12 04:56:42;;;;;;;;;29.00;23.25;2.50;60.90;;;;;;5034959;28;8769;-65
2022/01/12 04:59:08;;;;;;;;;11.50;10.75;2.40;60.40;;;;;;5034904;28;8782;-64
2022/01/12 05:01:47;;;;;;;;;32.50;28.75;2.00;60.50;;;;;;5034837;28;8769;-64
2022/01/12 05:12:51;;;;;;;;;22.75;21.00;2.10;59.80;;;;;;5014846;28;8883;-65
2022/01/12 05:15:26;;;;;;;;;32.25;26.75;2.00;61.40;;;;;;5034827;28;8816;-64
2022/01/12 05:17:52;;;;;;;;;31.75;28.25;1.90;60.40;;;;;;5034655;28;8817;-64
2022/01/12 05:20:18;;;;;;;;;30.25;29.25;2.00;61.10;;;;;;5034795;28;9448;-64
2022/01/12 05:22:43;;;;;;;;;41.50;36.00;1.90;61.40;;;;;;5034435;28;8778;-64
2022/01/12 05:25:10;;;;;;;;;42.75;37.75;2.30;59.90;;;;;;5034540;28;8778;-64
2022/01/12 05:27:35;;;;;;;;;44.00;37.00;2.40;59.90;;;;;;5034045;28;8908;-64
2022/01/12 05:30:01;;;;;;;;;45.00;33.50;2.50;59.90;;;;;;5034421;28;8817;-64
2022/01/12 05:32:27;;;;;;;;;34.25;33.75;2.00;59.80;;;;;;5034403;28;8777;-64
2022/01/12 05:34:59;;;;;;;;;38.75;34.00;2.10;60.50;;;;;;5034516;28;8894;-65
2022/01/12 05:37:25;;;;;;;;;34.00;32.25;1.50;61.10;;;;;;5034414;28;8786;-65
2022/01/12 05:39:51;;;;;;;;;44.25;36.00;1.40;61.80;;;;;;5034399;28;8796;-65
2022/01/12 05:42:17;;;;;;;;;49.25;43.00;1.50;62.80;;;;;;5034218;28;8770;-64
2022/01/12 05:44:43;;;;;;;;;47.25;41.25;1.30;63.00;;;;;;5034196;28;8773;-65
2022/01/12 05:47:19;;;;;;;;;40.25;39.75;1.40;62.80;;;;;;5034565;28;8820;-65
2022/01/12 05:49:45;;;;;;;;;44.00;39.25;1.40;62.20;;;;;;5034350;28;8742;-65
2022/01/12 05:52:12;;;;;;;;;39.75;33.50;1.60;62.80;;;;;;5034181;28;8782;-66
2022/01/12 05:54:38;;;;;;;;;43.75;41.25;1.70;61.90;;;;;;5034329;28;8814;-66
2022/01/12 05:57:04;;;;;;;;;31.00;31.00;1.50;61.70;;;;;;5034180;28;8785;-66
2022/01/12 05:59:30;;;;;;;;;41.75;36.00;1.40;62.30;;;;;;5034128;28;8773;-66
2022/01/12 06:01:55;;;;;;;;;29.25;24.75;1.70;61.00;;;;;;5034345;28;8770;-65
2022/01/12 06:04:21;;;;;;;;;37.50;30.00;1.20;62.40;;;;;;5034002;28;8824;-65
2022/01/12 06:06:47;;;;;;;;;30.75;29.50;1.20;61.80;;;;;;5033889;28;8773;-66
2022/01/12 06:09:13;;;;;;;;;29.25;28.50;1.00;62.70;;;;;;5033973;28;8789;-66
2022/01/12 06:11:39;;;;;;;;;33.50;31.00;1.10;62.90;;;;;;5034253;28;8795;-65
2022/01/12 06:14:07;;;;;;;;;41.00;33.00;1.40;62.00;;;;;;5033863;28;9585;-65
2022/01/12 06:16:33;;;;;;;;;40.00;31.25;1.60;60.90;;;;;;5033964;28;8793;-65
2022/01/12 06:18:58;;;;;;;;;39.75;33.25;1.40;61.30;;;;;;5033839;28;8770;-65
2022/01/12 06:21:24;;;;;;;;;39.00;33.25;1.50;61.70;;;;;;5034087;28;8782;-65
2022/01/12 06:23:50;;;;;;;;;45.25;41.50;1.90;59.60;;;;;;5035672;28;8788;-65
2022/01/12 06:26:16;;;;;;;;;44.50;36.25;1.50;60.30;;;;;;5037712;28;8762;-66
2022/01/12 06:28:53;;;;;;;;;38.75;37.50;1.50;61.40;;;;;;5037464;28;8912;-66
2022/01/12 06:31:26;;;;;;;;;53.50;46.75;1.10;61.10;;;;;;5037727;28;8797;-66
2022/01/12 06:33:52;;;;;;;;;58.25;47.25;1.30;61.90;;;;;;5037596;28;8837;-66
2022/01/12 06:36:21;;;;;;;;;55.50;46.75;1.40;61.50;;;;;;5037459;28;8776;-66
2022/01/12 06:38:47;;;;;;;;;58.50;50.00;1.70;59.70;;;;;;5037758;28;8812;-66
2022/01/12 06:41:14;;;;;;;;;54.75;46.50;2.20;58.60;;;;;;5037394;28;8784;-66
2022/01/12 06:43:41;;;;;;;;;68.25;55.25;2.00;59.00;;;;;;5037629;28;8781;-66
2022/01/12 06:46:07;;;;;;;;;70.75;59.25;2.00;58.70;;;;;;5036296;28;8774;-66
2022/01/12 06:48:34;;;;;;;;;67.50;52.75;2.00;59.00;;;;;;5037540;28;8773;-66
2022/01/12 06:51:00;;;;;;;;;60.50;51.00;2.20;58.30;;;;;;5037240;28;8778;-65
2022/01/12 06:53:26;;;;;;;;;64.00;48.75;2.60;57.20;;;;;;5037239;28;8808;-66
2022/01/12 06:55:51;;;;;;;;;65.50;55.25;2.60;56.80;;;;;;5037413;28;8786;-65
2022/01/12 06:58:17;;;;;;;;;60.75;52.75;2.90;56.60;;;;;;5037330;28;8758;-66
2022/01/12 07:00:43;;;;;;;;;73.50;60.00;3.10;55.40;;;;;;5037081;28;8766;-66
2022/01/12 07:03:09;;;;;;;;;54.00;45.00;3.20;55.90;;;;;;5037183;28;8816;-66
2022/01/12 07:05:35;;;;;;;;;44.25;40.75;2.40;56.70;;;;;;5037271;28;8851;-66
2022/01/12 07:08:01;;;;;;;;;46.00;44.00;2.10;58.90;;;;;;5037188;28;8806;-66
2022/01/12 07:10:27;;;;;;;;;54.75;46.75;2.70;57.80;;;;;;5035720;28;8793;-65
2022/01/12 07:12:53;;;;;;;;;63.25;53.00;2.80;57.10;;;;;;5036806;28;8812;-65
2022/01/12 07:15:18;;;;;;;;;60.00;49.00;3.00;57.00;;;;;;5036561;28;8801;-65
2022/01/12 07:17:44;;;;;;;;;52.75;47.50;3.10;56.90;;;;;;5036726;28;9474;-65
2022/01/12 07:20:10;;;;;;;;;58.25;49.50;3.10;54.90;;;;;;5036560;28;9431;-65
2022/01/12 07:22:36;;;;;;;;;62.50;50.75;2.60;55.50;;;;;;5036944;28;8765;-65
2022/01/12 07:25:02;;;;;;;;;57.75;43.75;2.60;56.80;;;;;;5036806;28;9432;-67
2022/01/12 07:27:28;;;;;;;;;53.00;44.75;2.30;56.30;;;;;;5036256;28;8896;-65
2022/01/12 07:29:54;;;;;;;;;47.75;45.25;2.30;57.20;;;;;;5036381;28;8947;-65
2022/01/12 07:32:20;;;;;;;;;53.00;44.00;2.40;57.30;;;;;;5036398;28;8773;-65
2022/01/12 07:34:45;;;;;;;;;59.50;49.50;2.70;56.10;;;;;;5035611;28;8821;-65
2022/01/12 07:37:12;;;;;;;;;47.50;44.00;2.80;55.40;;;;;;5036373;28;8785;-64
2022/01/12 07:39:38;;;;;;;;;53.25;44.75;2.50;56.80;;;;;;5036531;28;8785;-64
2022/01/12 07:42:05;;;;;;;;;51.50;46.25;2.60;56.70;;;;;;5036286;28;8842;-65
2022/01/12 07:44:30;;;;;;;;;44.25;38.25;2.70;55.80;;;;;;5036389;28;8769;-65
2022/01/12 07:46:56;;;;;;;;;55.75;46.25;2.60;55.50;;;;;;5036236;28;8885;-65
2022/01/12 07:49:22;;;;;;;;;56.75;48.25;2.80;55.00;;;;;;5036102;28;8773;-66
2022/01/12 07:51:48;;;;;;;;;61.25;47.50;2.40;55.80;;;;;;5036095;28;8785;-66
2022/01/12 07:54:14;;;;;;;;;68.00;55.50;2.30;56.50;;;;;;5036223;28;8836;-67
2022/01/12 07:56:40;;;;;;;;;74.50;55.50;2.30;56.60;;;;;;5036104;28;8789;-64
2022/01/12 07:59:06;;;;;;;;;74.75;60.75;2.00;57.10;;;;;;5053062;28;8775;-64
2022/01/12 08:01:31;;;;;;;;;76.75;61.00;2.10;58.70;;;;;;5055342;28;8807;-64
2022/01/12 08:03:57;;;;;;;;;80.75;65.50;1.80;60.00;;;;;;5055170;28;8772;-64
2022/01/12 08:06:23;;;;;;;;;78.00;59.00;2.00;58.90;;;;;;5055137;28;8790;-64
2022/01/12 08:08:49;;;;;;;;;74.00;60.50;2.30;58.20;;;;;;5055475;28;8794;-64
2022/01/12 08:11:15;;;;;;;;;78.00;60.00;2.50;57.00;;;;;;5055153;28;8771;-65
2022/01/12 08:13:42;;;;;;;;;71.00;57.75;2.50;56.60;;;;;;5054919;28;8803;-65
2022/01/12 08:16:08;;;;;;;;;72.75;61.25;2.70;55.90;;;;;;5053888;28;8775;-65
2022/01/12 08:18:34;;;;;;;;;78.00;61.25;2.80;55.50;;;;;;5054990;28;8769;-65
2022/01/12 08:21:03;;;;;;;;;70.50;56.75;3.00;54.80;;;;;;5055433;28;8882;-64
2022/01/12 08:23:28;;;;;;;;;63.25;53.00;2.80;54.50;;;;;;5055445;28;8768;-64
2022/01/12 08:25:54;;;;;;;;;54.50;45.00;2.40;55.60;;;;;;5055615;28;8889;-64
2022/01/12 08:28:20;;;;;;;;;51.25;45.75;1.70;57.90;;;;;;5055082;28;9453;-64
2022/01/12 08:30:46;;;;;;;;;67.50;54.25;1.50;59.60;;;;;;5055184;28;8787;-64
2022/01/12 08:33:12;;;;;;;;;60.00;49.00;1.90;58.80;;;;;;5055151;28;8794;-64
2022/01/12 08:35:37;;;;;;;;;65.50;50.75;2.40;57.10;;;;;;5055438;28;8795;-64
2022/01/12 08:38:03;;;;;;;;;67.50;54.25;1.80;57.30;;;;;;5055524;28;9408;-64
2022/01/12 08:40:30;;;;;;;;;66.75;55.25;1.90;57.60;;;;;;5055129;28;8782;-65
2022/01/12 08:42:56;;;;;;;;;51.75;44.00;1.80;58.20;;;;;;5055381;28;9598;-65
2022/01/12 08:45:22;;;;;;;;;55.50;47.50;2.20;57.40;;;;;;5054873;28;8814;-64
2022/01/12 08:47:48;;;;;;;;;61.50;50.75;2.10;56.50;;;;;;5054048;28;8793;-64
2022/01/12 08:50:14;;;;;;;;;53.25;43.50;2.10;57.00;;;;;;5055067;28;8779;-65
2022/01/12 08:52:47;;;;;;;;;54.25;48.25;1.90;56.70;;;;;;5054961;28;8744;-64
2022/01/12 08:55:21;;;;;;;;;67.25;53.00;1.50;58.10;;;;;;5054697;28;8883;-63
2022/01/12 08:57:47;;;;;;;;;63.75;52.75;1.60;59.10;;;;;;5054824;28;9598;-64
2022/01/12 09:00:14;;;;;;;;;51.00;44.25;2.10;57.50;;;;;;5055028;28;8767;-63
2022/01/12 09:02:40;;;;;;;;;72.00;55.50;2.50;56.30;;;;;;5054657;28;8771;-64
2022/01/12 09:05:07;;;;;;;;;67.50;54.75;2.40;56.00;;;;;;5054689;28;8804;-62
2022/01/12 09:07:34;;;;;;;;;70.75;54.00;2.40;56.20;;;;;;5054656;28;8776;-64
2022/01/12 09:10:01;;;;;;;;;69.00;56.25;2.50;56.00;;;;;;5053362;28;8771;-63
2022/01/12 09:12:27;;;;;;;;;61.00;52.75;2.50;55.90;;;;;;5054557;28;8752;-66
2022/01/12 09:14:53;;;;;;;;;58.00;49.25;2.40;57.00;;;;;;5054511;28;8864;-65
2022/01/12 09:17:21;;;;;;;;;63.00;51.00;1.90;57.00;;;;;;5054653;28;8767;-67
2022/01/12 09:19:47;;;;;;;;;59.25;50.25;2.10;57.80;;;;;;5054355;28;8781;-65
2022/01/12 09:22:13;;;;;;;;;57.00;46.25;2.10;57.00;;;;;;5054639;28;8786;-66
2022/01/12 09:24:39;;;;;;;;;66.25;54.25;2.00;58.10;;;;;;5054319;28;8809;-72
2022/01/12 09:27:05;;;;;;;;;55.00;47.00;2.40;56.90;;;;;;5054582;28;8755;-69
2022/01/12 09:29:31;;;;;;;;;59.75;50.25;2.30;55.00;;;;;;5054191;28;8837;-68
2022/01/12 09:31:57;;;;;;;;;53.75;44.25;2.00;55.60;;;;;;5054278;28;9389;-67
2022/01/12 09:34:22;;;;;;;;;61.50;50.00;1.80;56.80;;;;;;5054446;28;8787;-69
2022/01/12 09:36:48;;;;;;;;;53.25;48.00;1.70;56.80;;;;;;5054062;28;8779;-69
2022/01/12 09:39:14;;;;;;;;;52.50;44.75;1.90;55.90;;;;;;5054243;28;8794;-69
2022/01/12 09:41:40;;;;;;;;;65.75;54.00;2.10;57.00;;;;;;5054254;28;8773;-69
2022/01/12 09:44:06;;;;;;;;;62.00;50.50;2.30;55.60;;;;;;5054217;28;8763;-67
2022/01/12 09:46:32;;;;;;;;;53.25;44.50;2.30;55.30;;;;;;5054391;28;9483;-68
2022/01/12 09:49:00;;;;;;;;;63.75;53.00;2.40;55.20;;;;;;5054061;28;8759;-68
2022/01/12 09:51:26;;;;;;;;;64.00;52.00;2.20;55.80;;;;;;5054093;28;8767;-69
2022/01/12 09:53:52;;;;;;;;;66.00;55.50;1.90;58.20;;;;;;5054049;28;8791;-69
2022/01/12 09:56:24;;;;;;;;;68.00;55.50;2.10;56.80;;;;;;5054321;28;8766;-67
2022/01/12 09:58:53;;;;;;;;;61.00;49.00;2.40;56.10;;;;;;5055979;28;8784;-67
2022/01/12 10:01:47;;;;;;;;;66.00;51.75;2.60;55.80;;;;;;5058092;28;8795;-67
2022/01/12 10:04:19;;;;;;;;;70.00;56.75;2.70;55.60;;;;;;5056513;28;8956;-69
2022/01/12 10:07:05;;;;;;;;;75.00;58.25;2.60;55.80;;;;;;5057732;28;8781;-68
2022/01/12 10:09:36;;;;;;;;;67.25;52.00;2.80;55.80;;;;;;5058298;28;8774;-67
2022/01/12 10:12:08;;;;;;;;;60.50;51.25;3.20;55.50;;;;;;5058025;28;8859;-67
2022/01/12 10:14:39;;;;;;;;;68.25;55.25;3.20;54.60;;;;;;5056819;28;8822;-67
2022/01/12 10:17:05;;;;;;;;;66.50;51.25;3.10;55.30;;;;;;5057588;28;8882;-66
2022/01/12 10:19:33;;;;;;;;;54.75;46.25;3.00;55.00;;;;;;5058154;28;8774;-66
2022/01/12 10:22:02;;;;;;;;;66.00;52.25;4.30;53.50;;;;;;5057704;28;8771;-68
2022/01/12 10:24:28;;;;;;;;;61.00;47.25;8.00;49.30;;;;;;5057558;28;8759;-70
2022/01/12 10:26:55;;;;;;;;;60.25;48.25;12.30;39.70;;;;;;5057684;28;8790;-65
2022/01/12 10:29:29;;;;;;;;;54.00;43.00;14.90;34.40;;;;;;5057485;28;8829;-65
2022/01/12 10:32:02;;;;;;;;;54.00;43.00;17.40;29.20;;;;;;5057771;28;8763;-65
2022/01/12 10:34:40;;;;;;;;;51.33;42.00;19.40;27.00;;;;;;5057530;28;9658;-65
2022/01/12 10:37:12;;;;;;;;;47.00;38.33;19.50;25.90;;;;;;5057314;28;8789;-65
2022/01/12 10:39:43;;;;;;;;;52.67;44.33;19.00;26.00;;;;;;5057559;28;8814;-65
2022/01/12 10:42:12;;;;;;;;;54.33;42.33;16.70;27.20;;;;;;5057329;28;8779;-66
2022/01/12 10:44:49;;;;;;;;;58.00;46.00;18.40;26.90;;;;;;5057369;28;8783;-66
2022/01/12 10:47:19;;;;;;;;;54.00;45.67;18.40;26.30;;;;;;5057449;28;8845;-66
2022/01/12 10:49:54;;;;;;;;;54.67;45.00;19.10;26.70;;;;;;5057402;28;8844;-65
2022/01/12 10:52:24;;;;;;;;;45.33;39.67;20.70;24.30;;;;;;5057202;28;8771;-65
2022/01/12 10:54:54;;;;;;;;;50.33;43.33;20.70;24.60;;;;;;5057300;28;8802;-65
2022/01/12 10:57:30;;;;;;;;;49.00;43.00;21.40;23.60;;;;;;5057012;28;8783;-65
2022/01/12 11:00:07;;;;;;;;;46.33;40.33;22.20;22.70;;;;;;5057223;28;8810;-67
2022/01/12 11:02:35;;;;;;;;;47.33;41.00;22.20;22.70;;;;;;5057073;28;8767;-65
2022/01/12 11:05:02;;;;;;;;;48.00;42.00;21.00;23.20;;;;;;5057154;28;8747;-65
2022/01/12 11:07:31;;;;;;;;;47.00;41.00;20.40;23.50;;;;;;5055981;28;8779;-68
2022/01/12 11:10:00;;;;;;;;;47.33;41.33;21.10;23.00;;;;;;5054323;28;8802;-68
2022/01/12 11:12:27;;;;;;;;;40.33;36.00;22.80;22.40;;;;;;5055573;28;8768;-66
2022/01/12 11:14:53;;;;;;;;;48.67;41.67;23.30;21.50;;;;;;5055570;28;9418;-69
2022/01/12 11:17:19;;;;;;;;;49.67;42.67;24.00;21.20;;;;;;5055295;28;8773;-68
2022/01/12 11:20:09;;;;;;;;;54.00;43.67;18.40;22.70;;;;;;5055312;28;8759;-69
2022/01/12 11:22:44;;;;;;;;;49.67;42.33;18.90;25.20;;;;;;5054096;28;8844;-67
2022/01/12 11:25:24;;;;;;;;;51.00;43.00;18.00;25.40;;;;;;5053281;28;8961;-68
2022/01/12 11:28:06;;;;;;;;;46.00;39.67;17.70;26.30;;;;;;5053089;28;8806;-67
2022/01/12 11:30:33;;;;;;;;;50.33;43.00;19.10;24.90;;;;;;5053837;28;9440;-75
2022/01/12 11:33:02;;;;;;;;;45.67;40.33;20.10;24.80;;;;;;5054941;28;8787;-69
2022/01/12 11:35:34;;;;;;;;;48.33;42.00;21.80;23.30;;;;;;5055081;28;8791;-69
2022/01/12 11:38:01;;;;;;;;;55.67;46.67;22.40;22.50;;;;;;5055078;28;8794;-70
2022/01/12 11:40:43;;;;;;;;;50.33;43.33;21.70;21.90;;;;;;5055225;28;8767;-70
2022/01/12 11:43:25;;;;;;;;;45.00;38.33;22.80;22.60;;;;;;5053910;28;8767;-68
2022/01/12 11:46:01;;;;;;;;;47.33;40.33;24.30;20.90;;;;;;5056154;28;8791;-68
2022/01/12 11:48:36;;;;;;;;;52.00;44.67;21.90;21.60;;;;;;5054567;28;8787;-67
2022/01/12 11:51:02;;;;;;;;;51.00;43.00;19.20;23.90;;;;;;5053299;28;8901;-67
2022/01/12 11:53:30;;;;;;;;;52.67;44.67;19.50;24.90;;;;;;5054459;28;8878;-66
2022/01/12 11:56:09;;;;;;;;;47.67;40.67;20.20;24.60;;;;;;5054369;28;8771;-67
2022/01/12 11:58:35;;;;;;;;;48.00;41.67;21.60;22.90;;;;;;5052047;28;8771;-67
2022/01/12 12:01:01;;;;;;;;;42.33;37.00;20.60;22.50;;;;;;5054310;28;9453;-68
2022/01/12 12:03:26;;;;;;;;;43.00;37.33;20.00;23.20;;;;;;5054609;28;8768;-68
2022/01/12 12:05:54;;;;;;;;;44.00;38.00;21.00;22.90;;;;;;5054748;28;9795;-66
2022/01/12 12:08:24;;;;;;;;;48.67;41.67;20.90;22.30;;;;;;5055864;28;8775;-67
2022/01/12 12:10:52;;;;;;;;;43.67;38.67;21.10;22.80;;;;;;5055879;28;9495;-66
2022/01/12 12:13:21;;;;;;;;;45.00;39.00;21.70;21.90;;;;;;5055406;28;8771;-69
2022/01/12 12:15:47;;;;;;;;;37.67;34.33;21.00;21.90;;;;;;5055756;28;9499;-69
2022/01/12 12:18:16;;;;;;;;;43.33;38.00;20.80;21.80;;;;;;5055707;28;8873;-65
2022/01/12 12:20:42;;;;;;;;;47.00;40.33;17.50;25.40;;;;;;5055208;28;8885;-69
2022/01/12 12:23:08;;;;;;;;;49.67;43.00;19.20;24.60;;;;;;5055569;28;8779;-67
2022/01/12 12:25:38;;;;;;;;;43.00;37.00;19.70;23.50;;;;;;5055562;28;8759;-67
2022/01/12 12:28:08;;;;;;;;;43.33;37.67;20.10;23.00;;;;;;5055279;28;8831;-66
2022/01/12 12:30:38;;;;;;;;;44.67;39.00;20.80;23.10;;;;;;5053361;28;8791;-67
2022/01/12 12:33:13;;;;;;;;;43.67;38.00;19.60;22.20;;;;;;5055185;28;8790;-64
2022/01/12 12:35:41;;;;;;;;;40.33;36.67;18.70;24.20;;;;;;5055013;28;8814;-64
2022/01/12 12:38:10;;;;;;;;;41.33;37.33;20.20;23.30;;;;;;5055172;28;8831;-64
2022/01/12 12:40:55;;;;;;;;;45.67;39.00;17.40;24.40;;;;;;5055088;28;8893;-68
2022/01/12 12:43:25;;;;;;;;;43.67;37.67;16.70;26.10;;;;;;5054932;28;8755;-67
2022/01/12 12:45:57;;;;;;;;;48.33;40.67;17.80;24.80;;;;;;5054832;28;8787;-65
2022/01/12 12:48:29;;;;;;;;;35.33;33.33;18.50;25.10;;;;;;5055188;28;8779;-62
2022/01/12 12:51:08;;;;;;;;;42.00;38.00;19.50;23.60;;;;;;5054820;28;8763;-61
2022/01/12 12:53:58;;;;;;;;;48.33;41.00;18.20;24.30;;;;;;5054914;28;9425;-63
2022/01/12 12:56:27;;;;;;;;;38.67;35.67;17.90;25.20;;;;;;5054531;28;8878;-63
2022/01/12 12:58:55;;;;;;;;;45.00;39.00;15.90;26.40;;;;;;5054597;28;8767;-63
2022/01/12 13:01:24;;;;;;;;;56.00;45.00;16.10;27.60;;;;;;5054494;28;8807;-63
2022/01/12 13:03:54;;;;;;;;;56.00;47.00;18.10;26.00;;;;;;5054550;28;8802;-64
2022/01/12 13:06:26;;;;;;;;;54.00;46.67;18.50;24.90;;;;;;5054588;28;8767;-63
2022/01/12 13:08:55;;;;;;;;;59.00;49.25;17.20;25.60;;;;;;5053950;28;8814;-62
2022/01/12 13:11:29;;;;;;;;;59.67;49.00;16.80;26.20;;;;;;5053456;28;8771;-62
2022/01/12 13:13:56;;;;;;;;;50.67;43.67;16.60;26.80;;;;;;5051726;28;8802;-65
2022/01/12 13:16:24;;;;;;;;;52.33;45.00;17.10;25.50;;;;;;5053437;28;8776;-63
2022/01/12 13:18:50;;;;;;;;;53.67;43.67;17.20;25.10;;;;;;5050411;28;8771;-65
2022/01/12 13:21:17;;;;;;;;;55.00;44.33;16.60;26.10;;;;;;5053101;28;8837;-65
2022/01/12 13:23:45;;;;;;;;;54.75;43.25;16.40;26.50;;;;;;5053269;28;8775;-62
2022/01/12 13:26:16;;;;;;;;;52.67;45.00;16.80;26.20;;;;;;5050413;28;8848;-65
2022/01/12 13:28:47;;;;;;;;;57.33;47.00;16.70;25.80;;;;;;5052922;28;9663;-62
2022/01/12 13:31:15;;;;;;;;;53.67;46.33;17.00;26.00;;;;;;5050711;28;9448;-63
2022/01/12 13:33:43;;;;;;;;;65.50;52.50;16.90;25.90;;;;;;5053101;28;8830;-62
2022/01/12 13:36:25;;;;;;;;;62.75;52.25;17.60;25.50;;;;;;5054534;28;8778;-63
2022/01/12 13:39:00;;;;;;;;;62.25;49.00;17.20;25.00;;;;;;5054532;28;8814;-64
2022/01/12 13:41:29;;;;;;;;;61.75;49.25;14.10;27.20;;;;;;5054182;28;8778;-69
2022/01/12 13:44:01;;;;;;;;;64.50;52.00;14.70;28.00;;;;;;5054196;28;8782;-69
2022/01/12 13:46:31;;;;;;;;;62.50;50.25;15.20;27.70;;;;;;5054217;28;8783;-69
2022/01/12 13:51:43;;;;;;;;;57.00;46.00;14.00;28.20;;;;;;5054394;28;8783;-67
2022/01/12 13:54:14;;;;;;;;;54.25;45.00;12.10;29.10;;;;;;5054012;28;8821;-69
2022/01/12 13:56:45;;;;;;;;;61.25;49.50;11.90;31.30;;;;;;5054006;28;8809;-68
2022/01/12 13:59:14;;;;;;;;;61.50;49.00;11.90;30.90;;;;;;5053219;28;8771;-70
2022/01/12 14:01:43;;;;;;;;;52.75;44.50;11.00;31.50;;;;;;5052635;28;8775;-69
2022/01/12 14:04:17;;;;;;;;;57.25;43.50;8.90;34.90;;;;;;5054278;28;9428;-69
2022/01/12 14:06:46;;;;;;;;;57.00;47.25;7.50;37.90;;;;;;5053522;28;8791;-68
2022/01/12 14:11:53;;;;;;;;;67.50;53.75;6.30;41.30;;;;;;5054137;28;8873;-69